Time;durP1;ratioP1;P1;durP2;ratioP2;P2;SDS_P1;SDS_P2;PMS_P1;PMS_P2;Temp;Humidity;BMP_temperature;BMP_pressure;BME280_temperature;BME280_humidity;BME280_pressure;Samples;Min_cycle;Max_cycle;Signal;HPM_P1;HPM_P2
2023/05/15 00:01:38;;;;;;;7.27;6.63;;;15.40;99.90;;;;;;4988547;28;20233;-72
2023/05/15 00:04:05;;;;;;;11.40;7.07;;;15.40;99.90;;;;;;4988583;28;20246;-72
2023/05/15 00:06:32;;;;;;;9.90;6.80;;;15.30;99.90;;;;;;4987879;28;20218;-72
2023/05/15 00:09:00;;;;;;;7.90;7.10;;;15.30;99.90;;;;;;4987754;28;20894;-72
2023/05/15 00:11:27;;;;;;;7.93;7.13;;;15.30;99.90;;;;;;4988116;28;20766;-72
2023/05/15 00:13:54;;;;;;;7.60;6.87;;;15.20;99.90;;;;;;4987992;28;20310;-72
2023/05/15 00:16:21;;;;;;;7.87;7.23;;;15.20;99.90;;;;;;4988086;28;20210;-72
2023/05/15 00:18:48;;;;;;;7.37;6.77;;;15.20;99.90;;;;;;4988108;28;20245;-72
2023/05/15 00:21:15;;;;;;;8.63;6.80;;;15.10;99.90;;;;;;4988010;28;20321;-72
2023/05/15 00:23:42;;;;;;;10.73;7.57;;;15.10;99.90;;;;;;4987877;28;20217;-72
2023/05/15 00:26:14;;;;;;;7.53;6.93;;;15.10;99.90;;;;;;4987657;28;20733;-72
2023/05/15 00:28:41;;;;;;;9.73;6.93;;;15.10;99.90;;;;;;4987790;28;20213;-72
2023/05/15 00:31:08;;;;;;;8.07;6.87;;;15.00;99.90;;;;;;4988006;28;20206;-72
2023/05/15 00:33:35;;;;;;;7.40;6.80;;;15.00;99.90;;;;;;4987447;28;20218;-72
2023/05/15 00:36:02;;;;;;;13.60;7.17;;;15.00;99.90;;;;;;4987604;28;20249;-72
2023/05/15 00:38:29;;;;;;;8.23;7.20;;;14.90;99.90;;;;;;4987486;28;20685;-71
2023/05/15 00:40:56;;;;;;;8.67;7.10;;;14.90;99.90;;;;;;4986403;28;20715;-71
2023/05/15 00:43:26;;;;;;;9.80;8.20;;;14.90;99.90;;;;;;4987564;28;20245;-72
2023/05/15 00:45:53;;;;;;;8.07;7.27;;;14.80;99.90;;;;;;4987738;28;20309;-71
2023/05/15 00:48:21;;;;;;;7.43;6.73;;;14.80;99.90;;;;;;4987817;28;20214;-72
2023/05/15 00:50:50;;;;;;;11.57;7.60;;;14.70;99.90;;;;;;4988017;28;20253;-73
2023/05/15 00:53:17;;;;;;;7.50;6.80;;;14.70;99.90;;;;;;4986963;28;20241;-71
2023/05/15 00:55:46;;;;;;;8.00;7.20;;;14.70;99.90;;;;;;4987714;28;20256;-71
2023/05/15 00:58:14;;;;;;;11.17;6.90;;;14.60;99.90;;;;;;4987434;28;20206;-71
2023/05/15 01:00:43;;;;;;;7.30;6.73;;;14.60;99.90;;;;;;4987755;28;20264;-71
2023/05/15 01:03:10;;;;;;;8.13;7.20;;;14.60;99.90;;;;;;4987298;28;20206;-71
2023/05/15 01:05:37;;;;;;;7.90;6.90;;;14.60;99.90;;;;;;4986930;28;20687;-71
2023/05/15 01:08:12;;;;;;;8.20;7.10;;;14.50;99.90;;;;;;4986989;28;20244;-72
2023/05/15 01:10:41;;;;;;;8.23;7.03;;;14.50;99.90;;;;;;4987200;28;20284;-71
2023/05/15 01:13:09;;;;;;;8.47;6.83;;;14.50;99.90;;;;;;4987632;28;20244;-71
2023/05/15 01:15:36;;;;;;;7.60;6.83;;;14.50;99.90;;;;;;4986801;28;20685;-71
2023/05/15 01:18:04;;;;;;;7.60;6.93;;;14.50;99.90;;;;;;4987149;28;20553;-71
2023/05/15 01:20:39;;;;;;;11.97;7.57;;;14.50;99.90;;;;;;4986807;28;20245;-71
2023/05/15 01:23:11;;;;;;;8.80;7.67;;;14.50;99.90;;;;;;4987397;28;20320;-71
2023/05/15 01:26:08;;;;;;;11.27;7.93;;;14.50;99.90;;;;;;4987250;28;20234;-72
2023/05/15 01:28:42;;;;;;;8.80;8.00;;;14.60;99.90;;;;;;4987205;28;20287;-72
2023/05/15 01:31:15;;;;;;;8.47;7.77;;;14.70;99.90;;;;;;4967403;28;20203;-71
2023/05/15 01:33:45;;;;;;;10.00;8.07;;;14.60;99.90;;;;;;4981638;28;20198;-71
2023/05/15 01:36:18;;;;;;;8.37;7.53;;;14.60;99.90;;;;;;4983242;28;20241;-72
2023/05/15 01:38:50;;;;;;;8.73;7.93;;;14.50;99.90;;;;;;4982877;28;20281;-71
2023/05/15 01:41:23;;;;;;;8.40;7.60;;;14.50;99.90;;;;;;4971203;28;20298;-71
2023/05/15 01:43:59;;;;;;;8.93;7.90;;;14.40;99.90;;;;;;4973872;28;20201;-71
2023/05/15 01:46:29;;;;;;;8.73;7.80;;;14.40;99.90;;;;;;4985981;28;20288;-71
2023/05/15 01:48:58;;;;;;;8.67;7.47;;;14.30;99.90;;;;;;4986717;28;20194;-72
2023/05/15 01:51:27;;;;;;;8.70;7.97;;;14.30;99.90;;;;;;4986035;28;20217;-71
2023/05/15 01:53:58;;;;;;;9.17;8.23;;;14.30;99.90;;;;;;4985739;28;20214;-72
2023/05/15 01:56:26;;;;;;;8.50;7.77;;;14.20;99.90;;;;;;4977873;28;20218;-71
2023/05/15 01:58:55;;;;;;;9.03;8.00;;;14.20;99.90;;;;;;4967096;28;20214;-71
2023/05/15 02:01:23;;;;;;;8.70;7.90;;;14.20;99.90;;;;;;4967223;28;20684;-72
2023/05/15 02:03:51;;;;;;;9.20;8.40;;;14.30;99.90;;;;;;4967103;28;20265;-72
2023/05/15 02:06:19;;;;;;;10.60;7.53;;;14.20;99.90;;;;;;4966995;28;20219;-72
2023/05/15 02:08:48;;;;;;;8.77;7.97;;;14.20;99.90;;;;;;4966569;28;20604;-72
2023/05/15 02:11:15;;;;;;;8.90;8.00;;;14.10;99.90;;;;;;4966895;28;20214;-72
2023/05/15 02:13:43;;;;;;;9.83;8.33;;;14.10;99.90;;;;;;4966556;28;20318;-72
2023/05/15 02:16:11;;;;;;;8.93;8.03;;;14.10;99.90;;;;;;4967328;28;20217;-72
2023/05/15 02:18:38;;;;;;;8.73;7.90;;;14.10;99.90;;;;;;4967281;28;20298;-71
2023/05/15 02:21:05;;;;;;;8.57;7.73;;;14.10;99.90;;;;;;4968704;28;20297;-71
2023/05/15 02:23:32;;;;;;;8.90;8.10;;;14.00;99.90;;;;;;4975212;28;20559;-71
2023/05/15 02:26:13;;;;;;;8.20;7.53;;;13.90;99.90;;;;;;4976865;28;20210;-71
2023/05/15 02:28:50;;;;;;;8.80;8.10;;;13.80;99.90;;;;;;4977114;28;20317;-71
2023/05/15 02:31:26;;;;;;;8.17;7.50;;;13.70;99.90;;;;;;4973940;28;20198;-71
2023/05/15 02:33:59;;;;;;;8.77;7.83;;;13.70;99.90;;;;;;4973465;28;20234;-70
2023/05/15 02:36:32;;;;;;;9.57;7.67;;;13.70;99.90;;;;;;4969339;28;20298;-70
2023/05/15 02:38:59;;;;;;;9.77;8.53;;;13.80;99.90;;;;;;4984017;28;20208;-70
2023/05/15 02:41:27;;;;;;;9.00;8.20;;;13.70;99.90;;;;;;4983834;28;20305;-70
2023/05/15 02:43:55;;;;;;;8.77;7.97;;;13.70;99.90;;;;;;4983828;28;20252;-70
2023/05/15 02:46:25;;;;;;;9.10;8.07;;;13.70;99.90;;;;;;4977880;28;20206;-70
2023/05/15 02:48:52;;;;;;;9.37;8.50;;;13.70;99.90;;;;;;4983617;28;20220;-70
2023/05/15 02:51:20;;;;;;;9.23;8.33;;;13.70;99.90;;;;;;4983766;28;20207;-70
2023/05/15 02:53:47;;;;;;;10.30;9.30;;;13.80;99.90;;;;;;4975433;28;20787;-71
2023/05/15 02:56:14;;;;;;;10.17;9.17;;;13.90;99.90;;;;;;4965150;28;20313;-71
2023/05/15 02:58:44;;;;;;;9.83;8.93;;;13.80;99.90;;;;;;4969873;28;20202;-70
2023/05/15 03:01:11;;;;;;;9.93;8.10;;;13.80;99.90;;;;;;4984733;28;20277;-70
2023/05/15 03:03:39;;;;;;;10.57;9.50;;;13.80;99.90;;;;;;4986887;28;20276;-71
2023/05/15 03:06:06;;;;;;;10.33;8.57;;;13.70;99.90;;;;;;4989643;28;20246;-70
2023/05/15 03:08:33;;;;;;;9.87;8.33;;;13.70;99.90;;;;;;4988903;28;20334;-70
2023/05/15 03:11:00;;;;;;;9.20;8.33;;;13.70;99.90;;;;;;4989622;28;20214;-71
2023/05/15 03:13:27;;;;;;;9.63;8.77;;;13.70;99.90;;;;;;4988452;28;20265;-71
2023/05/15 03:15:54;;;;;;;10.13;8.73;;;13.70;99.90;;;;;;4988678;28;20319;-71
2023/05/15 03:18:21;;;;;;;9.30;8.40;;;13.70;99.90;;;;;;4988350;28;20308;-71
2023/05/15 03:20:52;;;;;;;9.43;8.63;;;13.70;99.90;;;;;;4989280;28;20214;-71
2023/05/15 03:23:19;;;;;;;9.50;8.57;;;13.60;99.90;;;;;;4988795;28;20210;-71
2023/05/15 03:25:45;;;;;;;9.23;8.23;;;13.60;99.90;;;;;;4989099;28;20332;-71
2023/05/15 03:28:13;;;;;;;12.83;8.87;;;13.40;99.90;;;;;;4989037;28;20210;-71
2023/05/15 03:30:40;;;;;;;12.53;8.50;;;13.50;99.90;;;;;;4988866;28;20306;-71
2023/05/15 03:33:07;;;;;;;10.13;9.13;;;13.40;99.90;;;;;;4973833;28;20246;-71
2023/05/15 03:35:34;;;;;;;11.43;8.70;;;13.50;99.90;;;;;;4969607;28;20214;-71
2023/05/15 03:38:02;;;;;;;9.23;8.33;;;13.50;99.90;;;;;;4969454;28;20215;-71
2023/05/15 03:40:29;;;;;;;9.13;8.20;;;13.50;99.90;;;;;;4969493;28;20366;-71
2023/05/15 03:42:57;;;;;;;13.67;8.40;;;13.60;99.90;;;;;;4969441;28;20202;-71
2023/05/15 03:45:24;;;;;;;11.00;8.20;;;13.60;99.90;;;;;;4969301;28;20215;-72
2023/05/15 03:47:50;;;;;;;9.40;8.60;;;13.70;99.90;;;;;;4980310;28;20497;-71
2023/05/15 03:50:17;;;;;;;12.87;8.43;;;13.70;99.90;;;;;;4988843;28;20293;-71
2023/05/15 03:52:44;;;;;;;8.57;7.77;;;13.80;99.90;;;;;;4988888;28;20237;-72
2023/05/15 03:55:12;;;;;;;9.47;8.30;;;13.80;99.90;;;;;;4988474;28;20312;-71
2023/05/15 03:57:40;;;;;;;9.63;8.73;;;13.80;99.90;;;;;;4988904;28;20293;-71
2023/05/15 04:00:09;;;;;;;8.70;8.00;;;13.80;99.90;;;;;;4988179;28;20232;-71
2023/05/15 04:02:36;;;;;;;9.07;8.27;;;13.90;99.90;;;;;;4988307;28;20214;-71
2023/05/15 04:05:04;;;;;;;9.37;8.50;;;13.90;99.90;;;;;;4988451;28;20241;-71
2023/05/15 04:07:32;;;;;;;9.50;8.70;;;13.90;99.90;;;;;;4987837;28;20269;-71
2023/05/15 04:10:00;;;;;;;9.43;8.60;;;13.80;99.90;;;;;;4988296;28;20355;-72
2023/05/15 04:12:29;;;;;;;9.70;8.80;;;13.80;99.90;;;;;;4987927;28;20234;-71
2023/05/15 04:14:56;;;;;;;9.37;8.47;;;13.90;99.90;;;;;;4988057;28;20210;-71
2023/05/15 04:17:23;;;;;;;12.77;9.13;;;13.80;99.90;;;;;;4977280;28;20203;-72
2023/05/15 04:19:50;;;;;;;12.97;8.97;;;13.80;99.90;;;;;;4968666;28;20744;-72
2023/05/15 04:22:17;;;;;;;10.50;9.10;;;13.80;99.90;;;;;;4968587;28;20210;-71
2023/05/15 04:24:44;;;;;;;9.20;8.40;;;13.80;99.90;;;;;;4969835;28;20580;-71
2023/05/15 04:27:11;;;;;;;9.93;9.13;;;13.80;99.90;;;;;;4988145;28;20206;-71
2023/05/15 04:29:39;;;;;;;9.67;8.83;;;13.80;99.90;;;;;;4988073;28;20623;-71
2023/05/15 04:32:06;;;;;;;10.47;9.10;;;13.80;99.90;;;;;;4982998;28;20225;-71
2023/05/15 04:34:33;;;;;;;9.67;8.87;;;13.70;99.90;;;;;;4987713;28;20220;-71
2023/05/15 04:37:00;;;;;;;9.60;8.70;;;13.80;99.90;;;;;;4987671;28;20943;-71
2023/05/15 04:39:27;;;;;;;10.17;9.07;;;13.70;99.90;;;;;;4987511;28;20217;-71
2023/05/15 04:41:54;;;;;;;10.17;8.20;;;13.70;99.90;;;;;;4987749;28;20328;-71
2023/05/15 04:44:21;;;;;;;9.70;8.70;;;13.70;99.90;;;;;;4987158;28;20672;-71
2023/05/15 04:46:49;;;;;;;10.97;8.47;;;13.70;99.90;;;;;;4987436;28;20870;-71
2023/05/15 04:49:16;;;;;;;10.13;9.27;;;13.70;99.90;;;;;;4987810;28;20616;-71
2023/05/15 04:51:43;;;;;;;9.40;8.50;;;13.80;99.90;;;;;;4987969;28;20585;-71
2023/05/15 04:54:10;;;;;;;9.33;8.53;;;13.80;99.90;;;;;;4987406;28;20337;-71
2023/05/15 04:56:37;;;;;;;13.03;8.30;;;13.80;99.90;;;;;;4987584;28;20293;-71
2023/05/15 04:59:04;;;;;;;12.37;9.50;;;13.90;99.90;;;;;;4987288;28;20317;-71
2023/05/15 05:01:33;;;;;;;9.97;8.90;;;13.90;99.90;;;;;;4969477;28;20301;-71
2023/05/15 05:04:01;;;;;;;10.27;9.27;;;14.00;99.90;;;;;;4987459;28;20296;-71
2023/05/15 05:06:28;;;;;;;11.73;10.53;;;14.00;99.90;;;;;;4987168;28;20209;-71
2023/05/15 05:08:55;;;;;;;10.70;9.60;;;14.10;99.90;;;;;;4986725;28;20337;-72
2023/05/15 05:11:23;;;;;;;10.40;9.30;;;14.20;99.90;;;;;;4987062;28;20233;-71
2023/05/15 05:13:50;;;;;;;10.00;9.17;;;14.30;99.90;;;;;;4987086;28;20273;-71
2023/05/15 05:16:17;;;;;;;11.17;10.03;;;14.30;99.90;;;;;;4986953;28;20210;-71
2023/05/15 05:18:44;;;;;;;9.77;8.87;;;14.40;99.90;;;;;;4986700;28;20672;-71
2023/05/15 05:21:12;;;;;;;12.00;10.00;;;14.40;99.90;;;;;;4987151;28;20204;-71
2023/05/15 05:23:39;;;;;;;13.40;10.23;;;14.50;99.90;;;;;;4986998;28;20308;-71
2023/05/15 05:26:06;;;;;;;10.20;9.23;;;14.50;99.90;;;;;;4986383;28;20942;-71
2023/05/15 05:28:33;;;;;;;11.03;9.93;;;14.60;99.90;;;;;;4987231;28;20210;-71
2023/05/15 05:31:01;;;;;;;11.60;9.83;;;14.60;99.90;;;;;;4987036;28;20680;-71
2023/05/15 05:33:28;;;;;;;10.70;9.60;;;14.70;99.90;;;;;;4968608;28;20713;-71
2023/05/15 05:35:55;;;;;;;14.57;9.97;;;14.70;99.90;;;;;;4967378;28;20213;-72
2023/05/15 05:38:23;;;;;;;16.53;10.07;;;14.80;99.90;;;;;;4967727;28;20213;-71
2023/05/15 05:40:50;;;;;;;20.33;9.60;;;14.80;99.90;;;;;;4982975;28;20268;-72
2023/05/15 05:43:17;;;;;;;10.57;8.30;;;14.80;99.90;;;;;;4986642;28;20289;-72
2023/05/15 05:45:44;;;;;;;10.40;8.87;;;14.90;99.90;;;;;;4986971;28;20272;-71
2023/05/15 05:48:12;;;;;;;10.97;8.17;;;14.80;99.90;;;;;;4986875;28;20208;-71
2023/05/15 05:50:39;;;;;;;13.60;9.30;;;14.90;99.90;;;;;;4986734;28;20221;-72
2023/05/15 05:53:06;;;;;;;30.33;10.37;;;14.90;99.90;;;;;;4986500;28;20238;-71
2023/05/15 05:55:34;;;;;;;21.17;9.67;;;15.00;99.90;;;;;;4986205;28;20213;-71
2023/05/15 05:58:01;;;;;;;18.27;10.73;;;15.00;99.90;;;;;;4986656;28;20212;-72
2023/05/15 06:00:28;;;;;;;11.90;10.70;;;15.00;99.90;;;;;;4986412;28;20316;-71
2023/05/15 06:02:57;;;;;;;14.00;11.60;;;15.10;99.90;;;;;;4986418;28;20297;-71
2023/05/15 06:05:24;;;;;;;19.73;11.87;;;15.10;99.90;;;;;;4986553;28;20206;-71
2023/05/15 06:07:51;;;;;;;18.03;12.03;;;15.10;99.90;;;;;;4985999;28;20945;-72
2023/05/15 06:10:18;;;;;;;18.70;11.73;;;15.10;99.90;;;;;;4986363;28;20322;-71
2023/05/15 06:12:46;;;;;;;14.40;10.00;;;15.10;99.90;;;;;;4986302;28;20310;-71
2023/05/15 06:15:14;;;;;;;12.43;8.87;;;15.20;99.90;;;;;;4985926;28;20210;-71
2023/05/15 06:17:40;;;;;;;9.10;8.30;;;15.30;99.90;;;;;;4986251;28;20293;-71
2023/05/15 06:20:09;;;;;;;8.23;7.43;;;15.30;99.90;;;;;;4986217;28;20201;-71
2023/05/15 06:22:36;;;;;;;9.20;7.47;;;15.40;99.90;;;;;;4985960;28;20232;-71
2023/05/15 06:25:05;;;;;;;9.33;7.27;;;15.40;99.90;;;;;;4986045;28;20357;-71
2023/05/15 06:27:31;;;;;;;7.30;6.13;;;15.50;99.90;;;;;;4986412;28;20285;-71
2023/05/15 06:30:00;;;;;;;8.03;6.17;;;15.50;99.90;;;;;;4985993;28;20304;-71
2023/05/15 06:32:28;;;;;;;7.10;5.80;;;15.60;99.90;;;;;;4985873;28;20210;-71
2023/05/15 06:34:55;;;;;;;8.90;6.23;;;15.70;99.90;;;;;;4985878;28;20234;-71
2023/05/15 06:37:21;;;;;;;8.03;6.30;;;15.70;99.90;;;;;;4985555;28;20285;-72
2023/05/15 06:39:48;;;;;;;13.53;6.80;;;15.80;99.90;;;;;;4988706;28;20309;-71
2023/05/15 06:42:15;;;;;;;19.93;6.60;;;15.80;99.90;;;;;;4989549;28;20301;-71
2023/05/15 06:44:42;;;;;;;38.97;7.90;;;15.90;99.90;;;;;;4976484;28;20326;-71
2023/05/15 06:47:10;;;;;;;48.87;8.50;;;15.90;99.90;;;;;;4970595;28;20242;-71
2023/05/15 06:49:37;;;;;;;22.23;6.10;;;16.00;99.90;;;;;;4970134;28;20221;-72
2023/05/15 06:52:05;;;;;;;5.93;5.37;;;16.00;99.90;;;;;;4970495;28;20309;-71
2023/05/15 06:54:31;;;;;;;16.43;5.70;;;16.00;99.90;;;;;;4970043;28;20297;-72
2023/05/15 06:56:58;;;;;;;10.80;4.93;;;16.10;99.90;;;;;;4970498;28;20230;-71
2023/05/15 06:59:25;;;;;;;5.63;5.13;;;16.10;99.90;;;;;;4970155;28;20369;-72
2023/05/15 07:01:52;;;;;;;7.57;5.27;;;16.10;99.90;;;;;;4975576;28;20242;-72
2023/05/15 07:04:20;;;;;;;6.70;4.50;;;16.20;99.90;;;;;;4989447;28;20210;-72
2023/05/15 07:06:47;;;;;;;11.57;5.03;;;16.30;99.90;;;;;;4989677;28;20376;-72
2023/05/15 07:09:14;;;;;;;6.10;4.57;;;16.40;99.90;;;;;;4988746;28;20240;-72
2023/05/15 07:11:41;;;;;;;7.03;5.33;;;16.50;99.90;;;;;;4989611;28;20288;-72
2023/05/15 07:14:08;;;;;;;6.43;4.83;;;16.60;99.90;;;;;;4988923;28;20700;-72
2023/05/15 07:16:35;;;;;;;6.10;4.80;;;16.70;99.90;;;;;;4989108;28;20234;-72
2023/05/15 07:19:02;;;;;;;4.70;4.20;;;16.70;99.90;;;;;;4989305;28;20216;-72
2023/05/15 07:21:31;;;;;;;4.73;4.30;;;16.80;99.90;;;;;;4988926;28;20624;-72
2023/05/15 07:23:58;;;;;;;8.10;4.50;;;16.80;99.90;;;;;;4989051;28;20273;-72
2023/05/15 07:26:24;;;;;;;5.80;4.47;;;16.80;99.90;;;;;;4989440;28;20329;-72
2023/05/15 07:28:52;;;;;;;12.57;4.90;;;16.80;99.90;;;;;;4989377;28;20213;-72
2023/05/15 07:31:18;;;;;;;5.27;4.40;;;16.80;99.90;;;;;;4989292;28;20206;-72
2023/05/15 07:33:45;;;;;;;4.80;4.27;;;16.90;99.90;;;;;;4989055;28;20316;-72
2023/05/15 07:36:12;;;;;;;6.77;3.77;;;17.00;99.90;;;;;;4989292;28;20210;-72
2023/05/15 07:38:40;;;;;;;7.87;3.93;;;17.10;99.90;;;;;;4988843;28;20301;-72
2023/05/15 07:41:07;;;;;;;8.40;4.17;;;17.10;99.90;;;;;;4988755;28;20799;-72
2023/05/15 07:43:34;;;;;;;5.37;4.20;;;17.20;99.90;;;;;;4988697;28;20285;-72
2023/05/15 07:46:01;;;;;;;4.97;3.90;;;17.20;99.90;;;;;;4988075;28;20210;-72
2023/05/15 07:48:28;;;;;;;6.37;4.00;;;17.30;99.90;;;;;;4988982;28;20273;-72
2023/05/15 07:50:55;;;;;;;6.03;4.30;;;17.40;99.90;;;;;;4988208;28;20302;-72
2023/05/15 07:53:22;;;;;;;4.23;3.93;;;17.40;99.90;;;;;;4988675;28;20206;-72
2023/05/15 07:55:51;;;;;;;4.20;3.80;;;17.50;99.90;;;;;;4988615;28;20324;-72
2023/05/15 07:58:18;;;;;;;4.33;3.93;;;17.50;99.90;;;;;;4988254;28;20218;-72
2023/05/15 08:00:45;;;;;;;4.23;3.90;;;17.60;99.90;;;;;;4988309;28;20264;-72
2023/05/15 08:03:12;;;;;;;6.80;4.03;;;17.60;99.90;;;;;;4988337;28;20210;-72
2023/05/15 08:05:39;;;;;;;4.50;4.03;;;17.70;99.90;;;;;;4988655;28;20297;-72
2023/05/15 08:08:06;;;;;;;4.40;3.80;;;17.80;99.90;;;;;;4988012;28;20329;-72
2023/05/15 08:10:32;;;;;;;7.43;4.00;;;17.80;99.90;;;;;;4987747;28;20202;-72
2023/05/15 08:13:01;;;;;;;5.37;3.87;;;17.80;99.90;;;;;;4988088;28;20250;-72
2023/05/15 08:15:28;;;;;;;4.10;3.43;;;17.90;99.90;;;;;;4987766;28;20252;-72
2023/05/15 08:17:54;;;;;;;4.10;3.70;;;17.90;99.90;;;;;;4987581;28;20703;-72
2023/05/15 08:20:21;;;;;;;4.97;4.17;;;17.90;99.90;;;;;;4987973;28;20238;-72
2023/05/15 08:22:48;;;;;;;7.40;4.30;;;17.90;99.90;;;;;;4988432;28;20220;-72
2023/05/15 08:25:15;;;;;;;7.87;4.53;;;18.00;99.90;;;;;;4987477;28;20218;-72
2023/05/15 08:27:42;;;;;;;8.80;5.03;;;18.00;99.90;;;;;;4987952;28;20226;-72
2023/05/15 08:30:12;;;;;;;5.80;4.50;;;18.00;99.90;;;;;;4987678;28;20317;-72
2023/05/15 08:32:39;;;;;;;8.17;4.50;;;18.00;99.90;;;;;;4988174;28;20317;-72
2023/05/15 08:35:07;;;;;;;4.87;4.03;;;18.00;99.90;;;;;;4988018;28;20477;-72
2023/05/15 08:37:34;;;;;;;8.13;4.33;;;18.10;99.90;;;;;;4988076;28;20296;-72
2023/05/15 08:40:01;;;;;;;5.53;4.10;;;18.10;99.90;;;;;;4987437;28;20256;-73
2023/05/15 08:42:34;;;;;;;6.80;4.70;;;18.20;99.90;;;;;;4987730;28;20650;-72
2023/05/15 08:45:02;;;;;;;4.57;4.10;;;18.20;99.90;;;;;;4987875;28;20290;-72
2023/05/15 08:47:35;;;;;;;5.43;4.30;;;18.20;99.90;;;;;;4987664;28;20214;-72
2023/05/15 08:50:06;;;;;;;9.03;5.13;;;18.20;99.90;;;;;;4987465;28;20318;-72
2023/05/15 08:52:34;;;;;;;9.43;4.60;;;18.20;99.90;;;;;;4987394;28;20205;-72
2023/05/15 08:55:02;;;;;;;37.60;7.30;;;18.30;99.90;;;;;;4987200;28;20284;-72
2023/05/15 08:57:30;;;;;;;23.97;6.07;;;18.30;99.90;;;;;;4987507;28;20202;-72
2023/05/15 08:59:58;;;;;;;8.83;4.33;;;18.30;99.90;;;;;;4987276;28;20313;-72
2023/05/15 09:02:25;;;;;;;11.67;4.73;;;18.30;99.90;;;;;;4982198;28;20306;-72
2023/05/15 09:04:54;;;;;;;8.53;4.73;;;18.30;99.90;;;;;;4987086;28;20221;-72
2023/05/15 09:07:21;;;;;;;8.03;4.27;;;18.30;99.90;;;;;;4986551;28;20210;-72
2023/05/15 09:09:49;;;;;;;10.17;4.63;;;18.30;99.90;;;;;;4983727;28;20268;-72
2023/05/15 09:12:17;;;;;;;10.73;4.70;;;18.30;99.90;;;;;;4967152;28;20306;-72
2023/05/15 09:14:44;;;;;;;4.57;4.17;;;18.30;99.90;;;;;;4967456;28;20660;-72
2023/05/15 09:17:11;;;;;;;6.17;4.33;;;18.30;99.90;;;;;;4976421;28;20301;-72
2023/05/15 09:19:39;;;;;;;7.77;4.60;;;18.30;99.90;;;;;;4987034;28;20861;-72
2023/05/15 09:22:22;;;;;;;4.83;4.23;;;18.30;99.90;;;;;;4987066;28;20225;-72
2023/05/15 09:24:51;;;;;;;7.37;4.60;;;18.20;99.90;;;;;;4984023;28;20211;-71
2023/05/15 09:27:18;;;;;;;7.17;4.87;;;18.20;99.90;;;;;;4967664;28;20548;-72
2023/05/15 09:29:46;;;;;;;8.37;4.83;;;18.20;99.90;;;;;;4967551;28;20226;-72
2023/05/15 09:32:14;;;;;;;8.57;4.87;;;18.20;99.90;;;;;;4975506;28;20242;-72
2023/05/15 09:34:42;;;;;;;4.63;4.13;;;18.30;99.90;;;;;;4987238;28;20247;-72
2023/05/15 09:37:10;;;;;;;6.23;4.27;;;18.30;99.90;;;;;;4986978;28;20623;-72
2023/05/15 09:39:42;;;;;;;6.37;4.33;;;18.30;99.90;;;;;;4984820;28;20210;-72
2023/05/15 09:42:10;;;;;;;6.73;4.33;;;18.30;99.90;;;;;;4967369;28;20205;-72
2023/05/15 09:44:42;;;;;;;6.63;4.70;;;18.30;99.90;;;;;;4967854;28;20229;-72
2023/05/15 09:47:09;;;;;;;5.33;4.13;;;18.40;99.90;;;;;;4967870;28;20195;-72
2023/05/15 09:49:36;;;;;;;16.20;5.27;;;18.40;99.90;;;;;;4967030;28;20210;-72
2023/05/15 09:52:07;;;;;;;16.30;4.63;;;18.40;99.90;;;;;;4967029;28;20317;-72
2023/05/15 09:54:35;;;;;;;9.23;4.43;;;18.40;99.90;;;;;;4967100;28;20227;-72
2023/05/15 09:57:10;;;;;;;8.87;5.13;;;18.50;99.90;;;;;;4967308;28;20206;-72
2023/05/15 09:59:42;;;;;;;7.13;4.63;;;18.60;99.90;;;;;;4978081;28;20238;-72
2023/05/15 10:02:13;;;;;;;5.70;4.47;;;18.70;99.90;;;;;;4986227;28;20272;-72
2023/05/15 10:04:40;;;;;;;5.50;4.53;;;18.90;99.90;;;;;;4986248;28;20210;-72
2023/05/15 10:07:08;;;;;;;5.70;4.23;;;18.90;99.90;;;;;;4986148;28;20700;-72
2023/05/15 10:09:35;;;;;;;18.60;4.97;;;19.00;99.90;;;;;;4986100;28;20556;-72
2023/05/15 10:12:02;;;;;;;8.35;4.22;;;19.00;99.90;;;;;;4986158;28;20543;-71
2023/05/15 10:14:31;;;;;;;6.67;4.13;;;19.10;99.90;;;;;;4985984;28;20245;-71
2023/05/15 10:16:58;;;;;;;4.20;3.60;;;19.20;99.90;;;;;;4986134;28;20297;-71
2023/05/15 10:19:27;;;;;;;11.43;4.23;;;19.30;99.90;;;;;;4986291;28;20301;-71
2023/05/15 10:21:54;;;;;;;6.33;4.30;;;19.30;99.90;;;;;;4986064;28;20253;-72
2023/05/15 10:24:23;;;;;;;5.10;4.18;;;19.40;99.90;;;;;;4985764;28;20711;-72
2023/05/15 10:26:50;;;;;;;6.80;4.10;;;19.50;99.90;;;;;;4986254;28;20206;-71
2023/05/15 10:29:20;;;;;;;8.32;4.10;;;19.50;99.90;;;;;;4986244;28;20245;-72
2023/05/15 10:31:49;;;;;;;5.10;3.97;;;19.50;99.90;;;;;;4981635;28;20219;-71
2023/05/15 10:34:17;;;;;;;8.88;3.92;;;19.60;99.90;;;;;;4966475;28;20317;-72
2023/05/15 10:36:45;;;;;;;7.53;3.90;;;19.70;99.60;;;;;;4966912;28;20202;-72
2023/05/15 10:39:12;;;;;;;6.38;3.65;;;19.70;98.80;;;;;;4966696;28;20229;-72
2023/05/15 10:41:40;;;;;;;5.53;3.80;;;19.80;98.90;;;;;;4984991;28;20304;-71
2023/05/15 10:44:06;;;;;;;3.80;3.60;;;19.90;99.60;;;;;;4985742;28;20700;-72
2023/05/15 10:46:35;;;;;;;5.82;4.28;;;19.90;99.40;;;;;;4985999;28;20306;-72
2023/05/15 10:49:04;;;;;;;3.65;3.40;;;19.90;98.50;;;;;;4985831;28;20941;-71
2023/05/15 10:51:34;;;;;;;4.75;4.03;;;19.90;98.50;;;;;;4985704;28;20220;-72
2023/05/15 10:54:03;;;;;;;4.20;3.90;;;19.90;99.00;;;;;;4985743;28;20195;-72
2023/05/15 10:56:30;;;;;;;5.03;3.95;;;20.00;99.90;;;;;;4985886;28;20264;-71
2023/05/15 10:58:57;;;;;;;4.10;3.90;;;19.90;99.50;;;;;;4986075;28;20222;-71
2023/05/15 11:01:26;;;;;;;4.85;4.07;;;19.90;99.40;;;;;;4985484;28;20300;-72
2023/05/15 11:04:07;;;;;;;4.30;3.90;;;19.90;99.50;;;;;;4986152;28;20238;-71
2023/05/15 11:06:34;;;;;;;4.82;3.85;;;19.90;99.00;;;;;;4985680;28;20206;-71
2023/05/15 11:09:36;;;;;;;8.45;3.97;;;19.80;99.30;;;;;;4985424;28;20289;-71
2023/05/15 11:12:04;;;;;;;4.93;3.83;;;19.80;99.50;;;;;;4985748;28;20229;-72
2023/05/15 11:14:32;;;;;;;4.30;3.88;;;19.80;99.70;;;;;;4985663;28;20305;-72
2023/05/15 11:17:07;;;;;;;4.30;3.90;;;19.70;99.80;;;;;;4985511;28;20257;-71
2023/05/15 11:19:54;;;;;;;6.15;4.03;;;19.70;99.90;;;;;;4966428;28;20248;-72
2023/05/15 11:22:25;;;;;;;4.22;3.92;;;19.70;99.90;;;;;;4966360;28;20758;-71
2023/05/15 11:24:54;;;;;;;4.53;4.13;;;19.80;99.90;;;;;;4972102;28;20257;-71
2023/05/15 11:27:23;;;;;;;7.87;3.70;;;19.80;99.90;;;;;;4989051;28;20280;-71
2023/05/15 11:30:11;;;;;;;5.13;3.85;;;19.80;99.90;;;;;;4989026;28;20256;-71
2023/05/15 11:33:00;;;;;;;6.05;3.97;;;19.90;99.90;;;;;;4977719;28;20211;-72
2023/05/15 11:35:32;;;;;;;35.65;5.95;;;19.90;99.90;;;;;;4966156;28;20237;-71
2023/05/15 11:38:01;;;;;;;13.75;4.90;;;20.00;99.90;;;;;;4969915;28;20570;-71
2023/05/15 11:40:30;;;;;;;4.25;3.85;;;20.00;99.80;;;;;;4969522;28;20206;-71
2023/05/15 11:43:05;;;;;;;29.75;6.63;;;20.00;99.70;;;;;;4969202;28;20207;-71
2023/05/15 11:45:34;;;;;;;7.30;4.10;;;20.00;99.90;;;;;;4969117;28;20729;-72
2023/05/15 11:48:03;;;;;;;4.70;3.83;;;20.00;99.50;;;;;;4969476;28;21131;-72
2023/05/15 11:50:33;;;;;;;35.15;5.97;;;20.00;99.40;;;;;;4969217;28;20214;-72
2023/05/15 11:53:03;;;;;;;7.45;3.95;;;20.00;98.40;;;;;;4988007;28;20957;-71
2023/05/15 11:55:32;;;;;;;4.13;3.72;;;20.00;97.90;;;;;;4988566;28;20240;-72
2023/05/15 11:58:00;;;;;;;3.53;3.33;;;20.10;98.10;;;;;;4988704;28;20660;-72
2023/05/15 12:00:27;;;;;;;3.88;3.22;;;20.10;98.10;;;;;;4988674;28;20229;-72
2023/05/15 12:02:54;;;;;;;3.65;3.25;;;20.20;98.00;;;;;;4985334;28;20329;-72
2023/05/15 12:05:21;;;;;;;6.38;3.20;;;20.30;97.80;;;;;;4988203;28;20764;-72
2023/05/15 12:07:49;;;;;;;4.53;3.53;;;20.30;97.10;;;;;;4988413;28;20241;-72
2023/05/15 12:10:16;;;;;;;6.60;3.15;;;20.40;96.30;;;;;;4980712;28;20306;-72
2023/05/15 12:12:44;;;;;;;4.38;3.03;;;20.50;96.10;;;;;;4969507;28;21043;-71
2023/05/15 12:15:12;;;;;;;3.95;3.08;;;20.70;96.50;;;;;;4972470;28;20230;-72
2023/05/15 12:17:39;;;;;;;3.53;2.63;;;20.90;95.00;;;;;;4969231;28;20297;-72
2023/05/15 12:20:12;;;;;;;3.08;2.88;;;21.10;94.50;;;;;;4968684;28;20791;-72
2023/05/15 12:22:40;;;;;;;3.95;3.28;;;21.40;95.20;;;;;;4985505;28;20298;-72
2023/05/15 12:25:10;;;;;;;3.40;2.63;;;21.70;95.80;;;;;;4987666;28;20578;-72
2023/05/15 12:27:39;;;;;;;2.65;2.50;;;21.90;93.40;;;;;;4987645;28;20226;-72
2023/05/15 12:30:07;;;;;;;3.63;3.30;;;22.10;92.50;;;;;;4987739;28;20224;-72
2023/05/15 12:32:36;;;;;;;4.85;3.25;;;22.40;92.90;;;;;;4976762;28;20325;-72
2023/05/15 12:35:04;;;;;;;3.55;3.20;;;22.60;93.60;;;;;;4968203;28;20715;-72
2023/05/15 12:37:32;;;;;;;3.83;3.47;;;22.80;93.30;;;;;;4968148;28;20207;-72
2023/05/15 12:40:01;;;;;;;3.30;2.90;;;23.10;93.70;;;;;;4973096;28;20220;-72
2023/05/15 12:42:29;;;;;;;2.90;2.70;;;23.20;93.40;;;;;;4987437;28;20711;-72
2023/05/15 12:44:56;;;;;;;3.92;3.10;;;23.20;92.80;;;;;;4987416;28;20300;-72
2023/05/15 12:47:24;;;;;;;3.88;2.70;;;23.20;92.70;;;;;;4987331;28;20297;-72
2023/05/15 12:49:55;;;;;;;2.88;2.67;;;23.30;91.00;;;;;;4987734;28;21117;-71